METAR AND TAF INFORMATION
METAR FOR LIPY
ADDS - METARS form results

(1203 UTC 22 October 2020)
Data provider http://aviationweather.gov/metar/data/
 
METAR text: LIPY 221150Z AUTO VRB03KT 9999 NCD 22/10 Q1023
Conditions at: LIPY (FALCONARA (IT-AF, IT) observed 1150 UTC 22 October 2020
Temperature: 22.0°C (72°F)
Dewpoint: 10.0°C (50°F) [RH = 46%]
Pressure (altimeter): 30.21 inches Hg (1023.0 mb)
Winds: variable direction winds at 3 MPH (3 knots; 1.5 m/s)
Visibility: 6 or more miles (10+ km)
Ceiling: at least 12,000 feet AGL
Clouds: sky clear below 12,000 feet AGL
Weather: no significant weather observed at this time

METAR text: LIPY 221120Z AUTO 03005KT 9999 NCD 20/14 Q1024
Conditions at: LIPY (FALCONARA (IT-AF, IT) observed 1120 UTC 22 October 2020
Temperature: 20.0°C (68°F)
Dewpoint: 14.0°C (57°F) [RH = 68%]
Pressure (altimeter): 30.24 inches Hg (1024.0 mb)
Winds: from the NNE (30 degrees) at 6 MPH (5 knots; 2.6 m/s)
Visibility: 6 or more miles (10+ km)
Ceiling: at least 12,000 feet AGL
Clouds: sky clear below 12,000 feet AGL
Weather: no significant weather observed at this time

Forecast for: LIPY (FALCONARA (IT-AF, IT)
Text: TAF LIPY 221100Z 2212/2312 VRB05KT 9999 FEW050
Forecast period: 1200 UTC 22 October 2020 to 1200 UTC 23 October 2020
Forecast type: FROM: standard forecast or significant change
Winds: variable direction winds at 6 MPH (5 knots; 2.6 m/s)
Visibility: 6 or more miles (10+ km)
Ceiling: at least 12,000 feet AGL
Clouds: few clouds at 5000 feet AGL
Weather: no significant weather forecast for this period

 AIRPORT MAP

 RUNWAY INFORMATION
Runway 04 Runway length 9718 ft Runway width 148 ft
Runway elevation 47 ft Runway displaced threshold 641 ft Runway heading 45
Runway 22 Runway length 9718 ft Runway width 148 ft
Runway elevation 29 ft Runway displaced threshold 492 ft Runway heading 225

 AIRPORT FREQUENCIES
Type APP Name ROMAGNA AP Frequency 37.975 MHZ
Type APP Name ROMAGNA AP Frequency 118.15 MHZ
Type ATIS Name ATIS Frequency 122.85 MHZ
Type TWR Name TWR Frequency 119.8 MHZ

 AIRPORT NEAR NAVIGATION AIDS
Type VOR-DME Name Ancona Frequency 110650 KHZ
Type NDB Name Ancona Frequency 375 KHZ
Type TACAN Name Falconara Frequency 109800 KHZ
Type NDB Name Falconara Frequency 358 KHZ



Powered by Virtual Airlines Manager [v2.6.2]

Hosted by Utixo.it